Flight Track Log - Related Links

Times and Time Zones

All times are in EDT time to prevent confusion due to time zone crossing. See the AMF1694 flight status page for this flight to view local times or setup timezone preferences in your user account.

Time Position Orientation Groundspeed Altitude Reporting Facility
EDT Latitude Longitude Course Direction KTS MPH feet Rate Location/Type
Thu 08:30:20 AM 40.3297 -96.9492 289° West 169 194 6,000  Level Minneapolis Center
Thu 08:31:22 AM 40.3467 -97.0117 290° West 178 205 6,000  Level Minneapolis Center
Thu 08:32:24 AM 40.3642 -97.0786 289° West 190 219 6,000  Level Minneapolis Center
Thu 08:33:25 AM 40.3764 -97.1453 284° West 189 217 6,000  Level Minneapolis Center
Thu 08:34:27 AM 40.3911 -97.2119 286° West 189 217 6,000 49 Level Minneapolis Center
Thu 08:35:28 AM 40.4003 -97.2764 281° West 183 211 6,100 49 Climbing Minneapolis Center
Thu 08:36:30 AM 40.4092 -97.3478 279° West 179 206 6,100 -48 Level Minneapolis Center
Thu 08:37:32 AM 40.4161 -97.4131 278° West 179 206 6,000  Descending Minneapolis Center
Thu 08:38:33 AM 40.4267 -97.4836 281° West 191 220 6,100 49 Climbing Minneapolis Center
Thu 08:39:35 AM 40.4425 -97.5539 287° West 198 228 6,100  Level Minneapolis Center
Thu 08:40:37 AM 40.4606 -97.6214 289° West 198 228 6,100  Level Minneapolis Center
Thu 08:41:38 AM 40.4808 -97.7019 288° West 195 224 6,100 -49 Level Minneapolis Center
Thu 08:42:40 AM 40.4972 -97.7714 287° West 197 227 6,000 -48 Descending Minneapolis Center
Thu 08:43:42 AM 40.5114 -97.8394 285° West 195 224 6,000 -49 Level Minneapolis Center
Thu 08:44:43 AM 40.5217 -97.9097 281° West 194 223 5,900  Descending Minneapolis Center
Thu 08:45:45 AM 40.5294 -97.9800 278° West 194 223 6,000  Climbing Minneapolis Center
Thu 08:46:47 AM 40.5428 -98.0483 284° West 193 222 5,900 -97 Descending Minneapolis Center
Thu 08:48:00 AM 40.5488 -98.1336 275° West  Level FlightAware Approximate
Thu 08:55:00 AM 40.6000 -98.4167 North  Level FlightAware Approximate
Thu 08:56:00 AM 40.6053 -98.4279 North  Level Estimated
Thu 08:57:00 AM 40.6053 -98.4279 North  Level Estimated

Login

Don't have an account? Register now (free) for customized features, flight alerts, and more!